sensor_id;sensor_type;location;lat;lon;timestamp;pressure;altitude;pressure_sealevel;temperature;humidity
52535;BME280;38443;53.164;5.802;2023-02-01T00:01:37;101737.06;;;4.28;100.00
52535;BME280;38443;53.164;5.802;2023-02-01T00:04:02;101737.06;;;4.28;100.00
52535;BME280;38443;53.164;5.802;2023-02-01T00:06:28;101722.91;;;4.29;100.00
52535;BME280;38443;53.164;5.802;2023-02-01T00:08:56;101716.75;;;4.28;100.00
52535;BME280;38443;53.164;5.802;2023-02-01T00:11:22;101715.84;;;4.28;100.00
52535;BME280;38443;53.164;5.802;2023-02-01T00:13:48;101725.59;;;4.30;100.00
52535;BME280;38443;53.164;5.802;2023-02-01T00:18:41;101715.91;;;4.32;100.00
52535;BME280;38443;53.164;5.802;2023-02-01T00:21:07;101714.13;;;4.33;100.00
52535;BME280;38443;53.164;5.802;2023-02-01T00:23:34;101728.25;;;4.32;100.00
52535;BME280;38443;53.164;5.802;2023-02-01T00:26:04;101722.09;;;4.34;100.00
52535;BME280;38443;53.164;5.802;2023-02-01T00:28:30;101721.22;;;4.37;100.00
52535;BME280;38443;53.164;5.802;2023-02-01T00:30:59;101724.81;;;4.37;100.00
52535;BME280;38443;53.164;5.802;2023-02-01T00:33:24;101705.41;;;4.42;100.00
52535;BME280;38443;53.164;5.802;2023-02-01T00:35:50;101720.41;;;4.43;100.00
52535;BME280;38443;53.164;5.802;2023-02-01T00:38:15;101682.44;;;4.44;100.00
52535;BME280;38443;53.164;5.802;2023-02-01T00:40:41;101705.47;;;4.48;100.00
52535;BME280;38443;53.164;5.802;2023-02-01T00:43:06;101703.66;;;4.47;100.00
52535;BME280;38443;53.164;5.802;2023-02-01T00:45:31;101706.31;;;4.45;100.00
52535;BME280;38443;53.164;5.802;2023-02-01T00:47:57;101711.63;;;4.47;100.00
52535;BME280;38443;53.164;5.802;2023-02-01T00:50:22;101715.13;;;4.44;100.00
52535;BME280;38443;53.164;5.802;2023-02-01T00:52:47;101708.06;;;4.43;100.00
52535;BME280;38443;53.164;5.802;2023-02-01T00:55:12;101708.06;;;4.45;100.00
52535;BME280;38443;53.164;5.802;2023-02-01T00:57:38;101714.28;;;4.48;100.00
52535;BME280;38443;53.164;5.802;2023-02-01T01:00:03;101705.47;;;4.49;100.00
52535;BME280;38443;53.164;5.802;2023-02-01T01:02:28;101707.28;;;4.53;100.00
52535;BME280;38443;53.164;5.802;2023-02-01T01:04:54;101696.72;;;4.58;100.00
52535;BME280;38443;53.164;5.802;2023-02-01T01:07:19;101698.50;;;4.60;100.00
52535;BME280;38443;53.164;5.802;2023-02-01T01:09:45;101700.31;;;4.63;100.00
52535;BME280;38443;53.164;5.802;2023-02-01T01:12:10;101701.16;;;4.62;100.00
52535;BME280;38443;53.164;5.802;2023-02-01T01:14:35;101690.56;;;4.62;100.00
52535;BME280;38443;53.164;5.802;2023-02-01T01:17:00;101694.13;;;4.64;100.00
52535;BME280;38443;53.164;5.802;2023-02-01T01:19:26;101699.47;;;4.67;100.00
52535;BME280;38443;53.164;5.802;2023-02-01T01:21:51;101691.50;;;4.66;100.00
52535;BME280;38443;53.164;5.802;2023-02-01T01:24:16;101697.66;;;4.65;100.00
52535;BME280;38443;53.164;5.802;2023-02-01T01:26:42;101688.81;;;4.61;100.00
52535;BME280;38443;53.164;5.802;2023-02-01T01:29:08;101689.63;;;4.55;100.00
52535;BME280;38443;53.164;5.802;2023-02-01T01:31:34;101684.28;;;4.52;100.00
52535;BME280;38443;53.164;5.802;2023-02-01T01:33:59;101678.09;;;4.50;100.00
52535;BME280;38443;53.164;5.802;2023-02-01T01:36:25;101674.53;;;4.45;100.00
52535;BME280;38443;53.164;5.802;2023-02-01T01:38:51;101677.16;;;4.44;100.00
52535;BME280;38443;53.164;5.802;2023-02-01T01:41:18;101669.16;;;4.42;100.00
52535;BME280;38443;53.164;5.802;2023-02-01T01:44:04;101667.38;;;4.39;100.00
52535;BME280;38443;53.164;5.802;2023-02-01T01:46:31;101656.81;;;4.43;100.00
52535;BME280;38443;53.164;5.802;2023-02-01T01:49:17;101669.22;;;4.45;100.00
52535;BME280;38443;53.164;5.802;2023-02-01T01:51:44;101655.91;;;4.42;100.00
52535;BME280;38443;53.164;5.802;2023-02-01T01:54:16;101652.41;;;4.43;100.00
52535;BME280;38443;53.164;5.802;2023-02-01T01:56:43;101653.28;;;4.42;100.00
52535;BME280;38443;53.164;5.802;2023-02-01T01:59:11;101638.25;;;4.44;100.00
52535;BME280;38443;53.164;5.802;2023-02-01T02:01:36;101644.44;;;4.42;100.00
52535;BME280;38443;53.164;5.802;2023-02-01T02:04:02;101642.66;;;4.40;100.00
52535;BME280;38443;53.164;5.802;2023-02-01T02:06:49;101640.00;;;4.40;100.00
52535;BME280;38443;53.164;5.802;2023-02-01T02:09:16;101615.28;;;4.42;100.00
52535;BME280;38443;53.164;5.802;2023-02-01T02:11:42;101628.56;;;4.43;100.00
52535;BME280;38443;53.164;5.802;2023-02-01T02:14:10;101630.31;;;4.44;100.00
52535;BME280;38443;53.164;5.802;2023-02-01T02:25:33;101598.53;;;4.49;100.00
52535;BME280;38443;53.164;5.802;2023-02-01T02:44:51;101566.78;;;4.56;100.00
52535;BME280;38443;53.164;5.802;2023-02-01T02:50:41;101572.13;;;4.59;100.00
52535;BME280;38443;53.164;5.802;2023-02-01T02:53:32;101583.63;;;4.62;100.00
52535;BME280;38443;53.164;5.802;2023-02-01T02:56:20;101568.56;;;4.59;100.00
52535;BME280;38443;53.164;5.802;2023-02-01T02:59:07;101582.72;;;4.59;100.00
52535;BME280;38443;53.164;5.802;2023-02-01T03:01:52;101565.91;;;4.59;100.00
52535;BME280;38443;53.164;5.802;2023-02-01T03:04:36;101578.31;;;4.60;100.00
52535;BME280;38443;53.164;5.802;2023-02-01T03:09:59;101565.03;;;4.58;100.00
52535;BME280;38443;53.164;5.802;2023-02-01T03:12:31;101565.94;;;4.57;100.00
52535;BME280;38443;53.164;5.802;2023-02-01T03:15:18;101559.72;;;4.58;100.00
52535;BME280;38443;53.164;5.802;2023-02-01T03:17:43;101557.13;;;4.62;100.00
52535;BME280;38443;53.164;5.802;2023-02-01T03:20:11;101564.19;;;4.63;100.00
52535;BME280;38443;53.164;5.802;2023-02-01T03:22:41;101558.91;;;4.66;100.00
52535;BME280;38443;53.164;5.802;2023-02-01T03:25:13;101549.19;;;4.68;100.00
52535;BME280;38443;53.164;5.802;2023-02-01T03:27:43;101554.50;;;4.69;100.00
52535;BME280;38443;53.164;5.802;2023-02-01T03:30:22;101562.47;;;4.72;100.00
52535;BME280;38443;53.164;5.802;2023-02-01T03:32:50;101551.00;;;4.73;100.00
52535;BME280;38443;53.164;5.802;2023-02-01T03:35:32;101537.72;;;4.75;100.00
52535;BME280;38443;53.164;5.802;2023-02-01T03:40:35;101546.59;;;4.77;100.00
52535;BME280;38443;53.164;5.802;2023-02-01T03:43:04;101524.50;;;4.78;100.00
52535;BME280;38443;53.164;5.802;2023-02-01T03:45:41;101552.78;;;4.76;100.00
52535;BME280;38443;53.164;5.802;2023-02-01T03:48:08;101541.28;;;4.74;100.00
52535;BME280;38443;53.164;5.802;2023-02-01T03:50:36;101560.69;;;4.73;100.00
52535;BME280;38443;53.164;5.802;2023-02-01T03:53:11;101548.31;;;4.70;100.00
52535;BME280;38443;53.164;5.802;2023-02-01T03:55:40;101565.13;;;4.72;100.00
52535;BME280;38443;53.164;5.802;2023-02-01T03:58:12;101556.28;;;4.70;100.00
52535;BME280;38443;53.164;5.802;2023-02-01T04:00:39;101550.06;;;4.68;100.00
52535;BME280;38443;53.164;5.802;2023-02-01T04:03:06;101537.72;;;4.67;100.00
52535;BME280;38443;53.164;5.802;2023-02-01T04:05:32;101553.63;;;4.67;100.00
52535;BME280;38443;53.164;5.802;2023-02-01T04:07:58;101535.03;;;4.66;100.00
52535;BME280;38443;53.164;5.802;2023-02-01T04:10:23;101556.22;;;4.63;100.00
52535;BME280;38443;53.164;5.802;2023-02-01T04:12:49;101557.13;;;4.62;100.00
52535;BME280;38443;53.164;5.802;2023-02-01T04:15:14;101561.47;;;4.56;100.00
52535;BME280;38443;53.164;5.802;2023-02-01T04:17:39;101560.59;;;4.51;100.00
52535;BME280;38443;53.164;5.802;2023-02-01T04:20:05;101549.94;;;4.48;100.00
52535;BME280;38443;53.164;5.802;2023-02-01T04:22:30;101508.38;;;4.43;100.00
52535;BME280;38443;53.164;5.802;2023-02-01T04:24:56;101535.78;;;4.43;100.00
52535;BME280;38443;53.164;5.802;2023-02-01T04:27:21;101531.31;;;4.36;100.00
52535;BME280;38443;53.164;5.802;2023-02-01T04:29:46;101525.97;;;4.31;100.00
52535;BME280;38443;53.164;5.802;2023-02-01T04:32:12;101539.22;;;4.30;100.00
52535;BME280;38443;53.164;5.802;2023-02-01T04:34:37;101549.78;;;4.27;100.00
52535;BME280;38443;53.164;5.802;2023-02-01T04:37:03;101540.91;;;4.22;100.00
52535;BME280;38443;53.164;5.802;2023-02-01T04:39:28;101541.78;;;4.20;100.00
52535;BME280;38443;53.164;5.802;2023-02-01T04:41:53;101532.94;;;4.20;100.00
52535;BME280;38443;53.164;5.802;2023-02-01T04:44:19;101537.41;;;4.24;100.00
52535;BME280;38443;53.164;5.802;2023-02-01T04:46:46;101540.06;;;4.26;100.00
52535;BME280;38443;53.164;5.802;2023-02-01T04:49:13;101548.06;;;4.35;100.00
52535;BME280;38443;53.164;5.802;2023-02-01T04:51:39;101542.84;;;4.41;100.00
52535;BME280;38443;53.164;5.802;2023-02-01T04:54:05;101535.78;;;4.46;100.00
52535;BME280;38443;53.164;5.802;2023-02-01T04:56:31;101518.16;;;4.50;100.00
52535;BME280;38443;53.164;5.802;2023-02-01T04:58:56;101513.72;;;4.49;100.00
52535;BME280;38443;53.164;5.802;2023-02-01T05:01:22;101531.44;;;4.54;100.00
52535;BME280;38443;53.164;5.802;2023-02-01T05:03:48;101527.03;;;4.56;100.00
52535;BME280;38443;53.164;5.802;2023-02-01T05:06:13;101523.47;;;4.54;100.00
52535;BME280;38443;53.164;5.802;2023-02-01T05:08:38;101526.16;;;4.59;100.00
52535;BME280;38443;53.164;5.802;2023-02-01T05:11:04;101525.25;;;4.57;100.00
52535;BME280;38443;53.164;5.802;2023-02-01T05:13:29;101520.81;;;4.53;100.00
52535;BME280;38443;53.164;5.802;2023-02-01T05:16:13;101521.72;;;4.53;100.00
52535;BME280;38443;53.164;5.802;2023-02-01T05:18:38;101535.88;;;4.55;100.00
52535;BME280;38443;53.164;5.802;2023-02-01T05:21:04;101527.91;;;4.55;100.00
52535;BME280;38443;53.164;5.802;2023-02-01T05:23:29;101530.56;;;4.55;100.00
52535;BME280;38443;53.164;5.802;2023-02-01T05:26:01;101542.91;;;4.55;100.00
52535;BME280;38443;53.164;5.802;2023-02-01T05:28:28;101533.19;;;4.52;100.00
52535;BME280;38443;53.164;5.802;2023-02-01T05:30:53;101530.53;;;4.49;100.00
52535;BME280;38443;53.164;5.802;2023-02-01T05:33:19;101554.38;;;4.48;100.00
52535;BME280;38443;53.164;5.802;2023-02-01T05:35:44;101543.75;;;4.43;100.00
52535;BME280;38443;53.164;5.802;2023-02-01T05:38:09;101541.06;;;4.42;100.00
52535;BME280;38443;53.164;5.802;2023-02-01T05:40:34;101538.44;;;4.46;100.00
52535;BME280;38443;53.164;5.802;2023-02-01T05:43:00;101539.34;;;4.45;100.00
52535;BME280;38443;53.164;5.802;2023-02-01T05:45:25;101523.44;;;4.45;100.00
52535;BME280;38443;53.164;5.802;2023-02-01T05:47:50;101533.97;;;4.37;100.00
52535;BME280;38443;53.164;5.802;2023-02-01T05:50:16;101538.34;;;4.32;100.00
52535;BME280;38443;53.164;5.802;2023-02-01T05:52:42;101544.53;;;4.31;100.00
52535;BME280;38443;53.164;5.802;2023-02-01T05:55:07;101520.66;;;4.28;100.00
52535;BME280;38443;53.164;5.802;2023-02-01T05:57:32;101527.69;;;4.26;100.00
52535;BME280;38443;53.164;5.802;2023-02-01T05:59:58;101532.94;;;4.18;100.00
52535;BME280;38443;53.164;5.802;2023-02-01T06:02:23;101536.44;;;4.16;100.00
52535;BME280;38443;53.164;5.802;2023-02-01T06:04:50;101542.63;;;4.16;100.00
52535;BME280;38443;53.164;5.802;2023-02-01T06:07:15;101539.97;;;4.13;100.00
52535;BME280;38443;53.164;5.802;2023-02-01T06:09:41;101532.91;;;4.14;100.00
52535;BME280;38443;53.164;5.802;2023-02-01T06:12:06;101532.00;;;4.15;100.00
52535;BME280;38443;53.164;5.802;2023-02-01T06:14:32;101551.50;;;4.22;100.00
52535;BME280;38443;53.164;5.802;2023-02-01T06:16:57;101548.94;;;4.29;100.00
52535;BME280;38443;53.164;5.802;2023-02-01T06:19:23;101546.31;;;4.34;100.00
52535;BME280;38443;53.164;5.802;2023-02-01T06:21:48;101548.06;;;4.33;100.00
52535;BME280;38443;53.164;5.802;2023-02-01T06:24:14;101540.09;;;4.32;100.00
52535;BME280;38443;53.164;5.802;2023-02-01T06:26:39;101551.59;;;4.29;100.00
52535;BME280;38443;53.164;5.802;2023-02-01T06:29:05;101548.06;;;4.35;100.00
52535;BME280;38443;53.164;5.802;2023-02-01T06:31:32;101541.94;;;4.37;100.00
52535;BME280;38443;53.164;5.802;2023-02-01T06:33:57;101536.63;;;4.40;100.00
52535;BME280;38443;53.164;5.802;2023-02-01T06:36:26;101539.28;;;4.39;100.00
52535;BME280;38443;53.164;5.802;2023-02-01T06:38:51;101538.41;;;4.42;100.00
52535;BME280;38443;53.164;5.802;2023-02-01T06:41:17;101535.78;;;4.43;100.00
52535;BME280;38443;53.164;5.802;2023-02-01T06:43:42;101538.41;;;4.40;100.00
52535;BME280;38443;53.164;5.802;2023-02-01T06:46:12;101524.22;;;4.36;100.00
52535;BME280;38443;53.164;5.802;2023-02-01T06:48:38;101540.97;;;4.31;100.00
52535;BME280;38443;53.164;5.802;2023-02-01T06:51:03;101541.84;;;4.28;100.00
52535;BME280;38443;53.164;5.802;2023-02-01T06:53:29;101556.84;;;4.23;100.00
52535;BME280;38443;53.164;5.802;2023-02-01T06:55:55;101556.81;;;4.25;100.00
52535;BME280;38443;53.164;5.802;2023-02-01T06:58:22;101554.19;;;4.26;100.00
52535;BME280;38443;53.164;5.802;2023-02-01T07:00:47;101555.09;;;4.30;100.00
52535;BME280;38443;53.164;5.802;2023-02-01T07:03:13;101555.09;;;4.30;100.00
52535;BME280;38443;53.164;5.802;2023-02-01T07:05:39;101549.75;;;4.24;100.00
52535;BME280;38443;53.164;5.802;2023-02-01T07:08:04;101551.50;;;4.20;100.00
52535;BME280;38443;53.164;5.802;2023-02-01T07:10:30;101535.53;;;4.14;100.00
52535;BME280;38443;53.164;5.802;2023-02-01T07:13:01;101542.63;;;4.13;100.00
52535;BME280;38443;53.164;5.802;2023-02-01T07:15:30;101536.44;;;4.14;100.00
52535;BME280;38443;53.164;5.802;2023-02-01T07:17:55;101529.38;;;4.16;100.00
52535;BME280;38443;53.164;5.802;2023-02-01T07:20:21;101533.81;;;4.17;100.00
52535;BME280;38443;53.164;5.802;2023-02-01T07:22:46;101539.13;;;4.17;100.00
52535;BME280;38443;53.164;5.802;2023-02-01T07:25:11;101532.97;;;4.22;100.00
52535;BME280;38443;53.164;5.802;2023-02-01T07:27:37;101526.78;;;4.24;100.00
52535;BME280;38443;53.164;5.802;2023-02-01T07:30:04;101539.16;;;4.27;100.00
52535;BME280;38443;53.164;5.802;2023-02-01T07:32:30;101539.16;;;4.27;100.00
52535;BME280;38443;53.164;5.802;2023-02-01T07:34:55;101534.81;;;4.32;100.00
52535;BME280;38443;53.164;5.802;2023-02-01T07:37:21;101559.56;;;4.35;100.00
52535;BME280;38443;53.164;5.802;2023-02-01T07:39:46;101553.34;;;4.32;100.00
52535;BME280;38443;53.164;5.802;2023-02-01T07:42:11;101544.50;;;4.33;100.00
52535;BME280;38443;53.164;5.802;2023-02-01T07:44:37;101562.19;;;4.32;100.00
52535;BME280;38443;53.164;5.802;2023-02-01T07:47:02;101556.00;;;4.32;100.00
52535;BME280;38443;53.164;5.802;2023-02-01T07:49:27;101554.22;;;4.31;100.00
52535;BME280;38443;53.164;5.802;2023-02-01T07:51:53;101552.47;;;4.30;100.00
52535;BME280;38443;53.164;5.802;2023-02-01T07:54:18;101556.03;;;4.33;100.00
52535;BME280;38443;53.164;5.802;2023-02-01T07:56:43;101560.44;;;4.34;100.00
52535;BME280;38443;53.164;5.802;2023-02-01T07:59:08;101556.00;;;4.35;100.00
52535;BME280;38443;53.164;5.802;2023-02-01T08:01:34;101566.63;;;4.33;100.00
52535;BME280;38443;53.164;5.802;2023-02-01T08:04:00;101571.94;;;4.33;100.00
52535;BME280;38443;53.164;5.802;2023-02-01T08:06:30;101564.00;;;4.36;100.00
52535;BME280;38443;53.164;5.802;2023-02-01T08:08:56;101553.44;;;4.41;100.00
52535;BME280;38443;53.164;5.802;2023-02-01T08:11:22;101557.84;;;4.42;100.00
52535;BME280;38443;53.164;5.802;2023-02-01T08:13:48;101549.94;;;4.45;100.00
52535;BME280;38443;53.164;5.802;2023-02-01T08:16:14;101559.66;;;4.51;100.00
52535;BME280;38443;53.164;5.802;2023-02-01T08:18:40;101564.13;;;4.56;100.00
52535;BME280;38443;53.164;5.802;2023-02-01T08:21:12;101557.06;;;4.58;100.00
52535;BME280;38443;53.164;5.802;2023-02-01T08:23:39;101563.25;;;4.56;100.00
52535;BME280;38443;53.164;5.802;2023-02-01T08:26:14;101557.06;;;4.55;100.00
52535;BME280;38443;53.164;5.802;2023-02-01T08:28:44;101552.63;;;4.54;100.00
52535;BME280;38443;53.164;5.802;2023-02-01T08:31:13;101547.31;;;4.53;100.00
52535;BME280;38443;53.164;5.802;2023-02-01T08:33:40;101540.25;;;4.55;100.00
52535;BME280;38443;53.164;5.802;2023-02-01T08:36:07;101541.16;;;4.55;100.00
52535;BME280;38443;53.164;5.802;2023-02-01T08:38:38;101540.31;;;4.59;100.00
52535;BME280;38443;53.164;5.802;2023-02-01T08:41:09;101535.00;;;4.63;100.00
52535;BME280;38443;53.164;5.802;2023-02-01T08:43:39;101535.91;;;4.62;100.00
52535;BME280;38443;53.164;5.802;2023-02-01T08:46:06;101519.13;;;4.61;100.00
52535;BME280;38443;53.164;5.802;2023-02-01T08:48:31;101523.53;;;4.62;100.00
52535;BME280;38443;53.164;5.802;2023-02-01T08:51:01;101519.09;;;4.63;100.00
52535;BME280;38443;53.164;5.802;2023-02-01T08:53:28;101516.44;;;4.63;100.00
52535;BME280;38443;53.164;5.802;2023-02-01T08:55:53;101527.06;;;4.64;100.00
52535;BME280;38443;53.164;5.802;2023-02-01T08:58:19;101507.63;;;4.64;100.00
52535;BME280;38443;53.164;5.802;2023-02-01T09:00:44;101512.94;;;4.64;100.00
52535;BME280;38443;53.164;5.802;2023-02-01T09:03:11;101502.34;;;4.64;100.00
52535;BME280;38443;53.164;5.802;2023-02-01T09:05:37;101496.13;;;4.65;100.00
52535;BME280;38443;53.164;5.802;2023-02-01T09:08:02;101482.91;;;4.66;100.00
52535;BME280;38443;53.164;5.802;2023-02-01T09:10:28;101496.19;;;4.69;100.00
52535;BME280;38443;53.164;5.802;2023-02-01T09:12:53;101500.56;;;4.69;100.00
52535;BME280;38443;53.164;5.802;2023-02-01T09:15:18;101480.25;;;4.68;100.00
52535;BME280;38443;53.164;5.802;2023-02-01T09:17:43;101495.28;;;4.69;100.00
52535;BME280;38443;53.164;5.802;2023-02-01T09:20:09;101486.44;;;4.70;100.00
52535;BME280;38443;53.164;5.802;2023-02-01T09:22:35;101487.34;;;4.70;100.00
52535;BME280;38443;53.164;5.802;2023-02-01T09:25:00;101484.72;;;4.73;100.00
52535;BME280;38443;53.164;5.802;2023-02-01T09:27:25;101469.69;;;4.75;100.00
52535;BME280;38443;53.164;5.802;2023-02-01T09:29:51;101469.66;;;4.77;100.00
52535;BME280;38443;53.164;5.802;2023-02-01T09:32:21;101467.94;;;4.77;100.00
52535;BME280;38443;53.164;5.802;2023-02-01T09:34:47;101463.50;;;4.78;100.00
52535;BME280;38443;53.164;5.802;2023-02-01T09:37:13;101466.16;;;4.76;100.00
52535;BME280;38443;53.164;5.802;2023-02-01T09:39:38;101444.06;;;4.76;100.00
52535;BME280;38443;53.164;5.802;2023-02-01T09:44:35;101435.19;;;4.77;100.00
52535;BME280;38443;53.164;5.802;2023-02-01T09:47:13;101445.81;;;4.75;100.00
52535;BME280;38443;53.164;5.802;2023-02-01T09:49:45;101438.75;;;4.77;100.00
52535;BME280;38443;53.164;5.802;2023-02-01T09:52:14;101445.84;;;4.80;100.00
52535;BME280;38443;53.164;5.802;2023-02-01T09:54:44;101452.00;;;4.80;100.00
52535;BME280;38443;53.164;5.802;2023-02-01T09:57:19;101444.94;;;4.81;100.00
52535;BME280;38443;53.164;5.802;2023-02-01T09:59:51;101444.97;;;4.84;100.00
52535;BME280;38443;53.164;5.802;2023-02-01T10:02:29;101451.16;;;4.91;100.00
52535;BME280;38443;53.164;5.802;2023-02-01T10:04:58;101443.25;;;4.94;100.00
52535;BME280;38443;53.164;5.802;2023-02-01T10:12:45;101448.59;;;5.09;100.00
52535;BME280;38443;53.164;5.802;2023-02-01T10:15:42;101461.00;;;5.18;100.00
52535;BME280;38443;53.164;5.802;2023-02-01T10:21:10;101438.94;;;5.36;100.00
52535;BME280;38443;53.164;5.802;2023-02-01T10:26:29;101453.09;;;5.43;100.00
52535;BME280;38443;53.164;5.802;2023-02-01T10:28:58;101438.94;;;5.44;100.00
52535;BME280;38443;53.164;5.802;2023-02-01T10:31:27;101442.47;;;5.49;100.00
52535;BME280;38443;53.164;5.802;2023-02-01T10:34:04;101445.13;;;5.55;100.00
52535;BME280;38443;53.164;5.802;2023-02-01T10:36:35;101443.38;;;5.55;100.00
52535;BME280;38443;53.164;5.802;2023-02-01T10:39:03;101437.19;;;5.58;100.00
52535;BME280;38443;53.164;5.802;2023-02-01T10:41:38;101444.25;;;5.56;100.00
52535;BME280;38443;53.164;5.802;2023-02-01T10:44:10;101436.28;;;5.54;100.00
52535;BME280;38443;53.164;5.802;2023-02-01T10:46:37;101425.66;;;5.53;100.00
52535;BME280;38443;53.164;5.802;2023-02-01T10:49:03;101449.59;;;5.57;100.00
52535;BME280;38443;53.164;5.802;2023-02-01T10:51:39;101443.38;;;5.62;100.00
52535;BME280;38443;53.164;5.802;2023-02-01T10:54:18;101444.25;;;5.67;100.00
52535;BME280;38443;53.164;5.802;2023-02-01T10:56:45;101455.78;;;5.73;100.00
52535;BME280;38443;53.164;5.802;2023-02-01T10:59:15;101428.34;;;5.74;100.00
52535;BME280;38443;53.164;5.802;2023-02-01T11:01:42;101443.41;;;5.75;100.00
52535;BME280;38443;53.164;5.802;2023-02-01T11:04:12;101431.00;;;5.71;100.00
52535;BME280;38443;53.164;5.802;2023-02-01T11:06:41;101442.50;;;5.69;100.00
52535;BME280;38443;53.164;5.802;2023-02-01T11:12:10;101433.66;;;5.64;100.00
52535;BME280;38443;53.164;5.802;2023-02-01T11:14:32;101431.88;;;5.64;100.00
52535;BME280;38443;53.164;5.802;2023-02-01T11:17:17;101440.72;;;5.68;100.00
52535;BME280;38443;53.164;5.802;2023-02-01T11:19:57;101445.13;;;5.67;100.00
52535;BME280;38443;53.164;5.802;2023-02-01T11:22:25;101454.88;;;5.67;100.00
52535;BME280;38443;53.164;5.802;2023-02-01T11:24:50;101426.56;;;5.63;100.00
52535;BME280;38443;53.164;5.802;2023-02-01T11:27:17;101441.59;;;5.60;100.00
52535;BME280;38443;53.164;5.802;2023-02-01T11:29:46;101446.91;;;5.62;100.00
52535;BME280;38443;53.164;5.802;2023-02-01T11:32:14;101430.97;;;5.65;100.00
52535;BME280;38443;53.164;5.802;2023-02-01T11:34:45;101415.03;;;5.73;100.00
52535;BME280;38443;53.164;5.802;2023-02-01T11:37:28;101455.78;;;5.79;100.00
52535;BME280;38443;53.164;5.802;2023-02-01T11:39:57;101465.50;;;5.87;100.00
52535;BME280;38443;53.164;5.802;2023-02-01T11:42:23;101452.25;;;5.90;100.00
52535;BME280;38443;53.164;5.802;2023-02-01T11:44:49;101459.31;;;5.86;100.00
52535;BME280;38443;53.164;5.802;2023-02-01T11:47:31;101445.16;;;5.90;100.00
52535;BME280;38443;53.164;5.802;2023-02-01T11:49:59;101449.63;;;5.96;100.00
52535;BME280;38443;53.164;5.802;2023-02-01T11:55:10;101463.78;;;6.06;100.00
52535;BME280;38443;53.164;5.802;2023-02-01T11:57:59;101460.22;;;6.14;100.00
52535;BME280;38443;53.164;5.802;2023-02-01T12:01:06;101460.22;;;6.13;100.00
52535;BME280;38443;53.164;5.802;2023-02-01T12:27:38;101461.09;;;6.16;100.00
52535;BME280;38443;53.164;5.802;2023-02-01T12:33:20;101450.47;;;6.16;100.00
52535;BME280;38443;53.164;5.802;2023-02-01T12:41:42;101469.09;;;6.24;100.00
52535;BME280;38443;53.164;5.802;2023-02-01T12:47:07;101459.34;;;6.14;100.00
52535;BME280;38443;53.164;5.802;2023-02-01T12:49:52;101473.53;;;6.02;100.00
52535;BME280;38443;53.164;5.802;2023-02-01T12:52:27;101472.59;;;5.91;100.00
52535;BME280;38443;53.164;5.802;2023-02-01T12:58:41;101477.91;;;5.86;100.00
52535;BME280;38443;53.164;5.802;2023-02-01T13:01:13;101478.81;;;5.88;100.00
52535;BME280;38443;53.164;5.802;2023-02-01T13:06:45;101463.75;;;5.93;100.00
52535;BME280;38443;53.164;5.802;2023-02-01T13:09:20;101448.69;;;5.94;100.00
52535;BME280;38443;53.164;5.802;2023-02-01T13:11:47;101496.56;;;6.00;100.00
52535;BME280;38443;53.164;5.802;2023-02-01T13:16:50;101474.41;;;6.12;100.00
52535;BME280;38443;53.164;5.802;2023-02-01T13:19:28;101483.28;;;6.15;100.00
52535;BME280;38443;53.164;5.802;2023-02-01T13:21:59;101472.63;;;6.17;100.00
52535;BME280;38443;53.164;5.802;2023-02-01T13:24:41;101475.28;;;6.22;100.00
52535;BME280;38443;53.164;5.802;2023-02-01T13:27:13;101488.56;;;6.28;100.00
52535;BME280;38443;53.164;5.802;2023-02-01T13:29:48;101487.69;;;6.29;100.00
52535;BME280;38443;53.164;5.802;2023-02-01T13:35:10;101496.53;;;6.29;100.00
52535;BME280;38443;53.164;5.802;2023-02-01T13:38:11;101478.81;;;6.30;100.00
52535;BME280;38443;53.164;5.802;2023-02-01T13:40:54;101486.75;;;6.39;100.00
52535;BME280;38443;53.164;5.802;2023-02-01T13:43:29;101491.22;;;6.35;100.00
52535;BME280;38443;53.164;5.802;2023-02-01T13:45:57;101484.13;;;6.27;100.00
52535;BME280;38443;53.164;5.802;2023-02-01T13:48:32;101490.34;;;6.19;100.00
52535;BME280;38443;53.164;5.802;2023-02-01T13:51:00;101502.75;;;6.16;100.00
52535;BME280;38443;53.164;5.802;2023-02-01T13:53:32;101507.16;;;6.17;100.00
52535;BME280;38443;53.164;5.802;2023-02-01T13:56:15;101503.66;;;6.18;100.00
52535;BME280;38443;53.164;5.802;2023-02-01T13:58:43;101493.91;;;6.22;100.00
52535;BME280;38443;53.164;5.802;2023-02-01T14:04:00;101492.13;;;6.30;100.00
52535;BME280;38443;53.164;5.802;2023-02-01T14:11:36;101512.47;;;6.38;100.00
52535;BME280;38443;53.164;5.802;2023-02-01T14:16:40;101488.56;;;6.32;100.00
52535;BME280;38443;53.164;5.802;2023-02-01T14:21:50;101518.72;;;6.24;100.00
52535;BME280;38443;53.164;5.802;2023-02-01T14:24:40;101528.44;;;6.25;100.00
52535;BME280;38443;53.164;5.802;2023-02-01T14:29:40;101523.09;;;6.29;100.00
52535;BME280;38443;53.164;5.802;2023-02-01T14:32:37;101523.13;;;6.32;100.00
52535;BME280;38443;53.164;5.802;2023-02-01T14:35:12;101530.19;;;6.33;100.00
52535;BME280;38443;53.164;5.802;2023-02-01T14:37:43;101524.00;;;6.33;100.00
52535;BME280;38443;53.164;5.802;2023-02-01T14:42:49;101527.56;;;6.24;100.00
52535;BME280;38443;53.164;5.802;2023-02-01T14:47:52;101538.22;;;6.19;100.00
52535;BME280;38443;53.164;5.802;2023-02-01T15:01:05;101549.69;;;6.17;100.00
52535;BME280;38443;53.164;5.802;2023-02-01T15:03:58;101551.47;;;6.10;100.00
52535;BME280;38443;53.164;5.802;2023-02-01T15:09:00;101549.69;;;6.05;100.00
52535;BME280;38443;53.164;5.802;2023-02-01T15:11:27;101566.53;;;6.04;100.00
52535;BME280;38443;53.164;5.802;2023-02-01T15:13:52;101570.94;;;5.98;100.00
52535;BME280;38443;53.164;5.802;2023-02-01T15:16:21;101578.00;;;5.92;100.00
52535;BME280;38443;53.164;5.802;2023-02-01T15:18:47;101570.03;;;5.84;100.00